Terminal Aerodrome Forecast
Issued by NWS

Home | Current Version | Previous Version | Text Only | Print | Product List | Glossary On
Versions: 1 2 3 4 5 6 7 8 9 10 11 12 13 14 15 16
945
FTUS46 KSGX 032337
TAFONT
TAF
KONT 032337Z 0400/0506 VRB04KT P6SM SKC WS012/04025KT
     FM042200 27007KT P6SM SKC=

USA.gov is the U.S. government's official web portal to all federal, state and local government web resources and services.